Time;durP1;ratioP1;P1;durP2;ratioP2;P2;SDS_P1;SDS_P2;PMS_P1;PMS_P2;Temp;Humidity;BMP_temperature;BMP_pressure;BME280_temperature;BME280_humidity;BME280_pressure;Samples;Min_cycle;Max_cycle;Signal;HPM_P1;HPM_P2
2023/10/23 04:01:08;;;;;;;22.30;8.70;;;;;;;11.30;75.32;98987.66;108019;1259;108925;-79
2023/10/23 04:03:37;;;;;;;20.10;8.30;;;;;;;11.28;75.34;98992.44;107386;1250;96586;-80
2023/10/23 04:06:05;;;;;;;20.50;8.50;;;;;;;11.26;75.39;98990.08;107588;1244;97856;-82
2023/10/23 04:08:32;;;;;;;22.50;8.40;;;;;;;11.24;75.31;98994.67;108155;1235;96630;-80
2023/10/23 04:10:59;;;;;;;19.90;7.70;;;;;;;11.19;75.29;98989.61;108219;1234;96713;-79
2023/10/23 04:13:45;;;;;;;;;;;;;;;;;;;;;
2023/10/23 04:16:15;;;;;;;19.60;7.70;;;;;;;11.08;75.33;98986.88;107926;1235;96604;-80
2023/10/23 04:18:45;;;;;;;17.20;7.60;;;;;;;11.06;75.44;98987.73;108315;1240;96675;-80
2023/10/23 04:21:23;;;;;;;17.80;7.20;;;;;;;11.04;75.45;98992.69;108169;1235;109419;-80
2023/10/23 04:23:52;;;;;;;16.70;7.40;;;;;;;11.04;75.49;98988.59;108742;1240;96668;-79
2023/10/23 04:26:19;;;;;;;14.30;5.70;;;;;;;11.01;75.39;98990.35;107990;1240;96711;-81
2023/10/23 04:28:46;;;;;;;16.60;6.70;;;;;;;11.00;75.43;98986.05;108198;1240;96650;-79
2023/10/23 04:31:13;;;;;;;17.40;5.90;;;;;;;10.97;75.35;98987.98;108380;1244;96576;-80
2023/10/23 04:33:39;;;;;;;14.90;5.70;;;;;;;10.96;75.35;98988.84;108543;1231;96775;-79
2023/10/23 04:36:06;;;;;;;14.50;5.50;;;;;;;10.94;75.46;98986.14;111543;1231;94691;-80
2023/10/23 04:38:33;;;;;;;15.00;5.50;;;;;;;10.93;75.35;98986.39;111287;1231;94571;-79
2023/10/23 04:41:01;;;;;;;15.90;5.90;;;;;;;10.92;75.40;98985.55;111491;1231;94364;-79
2023/10/23 04:43:28;;;;;;;12.80;5.40;;;;;;;10.91;75.32;98986.68;110564;1237;94650;-80
2023/10/23 04:45:56;;;;;;;12.10;5.20;;;;;;;10.90;75.31;98989.67;108880;1231;96604;-80
2023/10/23 04:48:25;;;;;;;14.50;5.40;;;;;;;10.89;75.33;98990.75;110179;1231;107149;-80
2023/10/23 04:51:03;;;;;;;14.40;5.50;;;;;;;10.89;75.30;98992.35;108471;1241;96759;-80
2023/10/23 04:53:30;;;;;;;11.90;4.80;;;;;;;10.88;75.24;98995.10;108713;1237;96650;-80
2023/10/23 04:55:58;;;;;;;16.50;5.40;;;;;;;10.86;75.31;98993.09;108618;1232;109840;-80
2023/10/23 04:58:25;;;;;;;11.50;5.20;;;;;;;10.86;75.20;98995.36;108663;1238;96570;-79
2023/10/23 05:00:58;;;;;;;14.80;5.10;;;;;;;10.85;75.33;99001.46;108653;1237;97484;-80
2023/10/23 05:07:37;;;;;;;8.70;3.90;;;;;;;10.80;75.34;99007.76;107995;1242;96837;-83
2023/10/23 05:10:26;;;;;;;;;;;;;;;;;;;;;
2023/10/23 05:14:04;;;;;;;;;;;;;;;;;;;;;
2023/10/23 05:18:37;;;;;;;;;;;;;;;;;;;;;
2023/10/23 05:21:24;;;;;;;7.30;3.40;;;;;;;10.77;75.34;99029.22;107832;1241;96763;-82
2023/10/23 05:25:18;;;;;;;10.90;3.70;;;;;;;10.80;75.44;99032.10;109050;1238;96594;-82
2023/10/23 05:27:47;;;;;;;9.70;3.70;;;;;;;10.82;75.37;99041.29;108057;1244;110244;-80
2023/10/23 05:30:28;;;;;;;;;;;;;;;;;;;;;
2023/10/23 05:33:03;;;;;;;9.00;3.60;;;;;;;10.82;75.32;99052.83;108467;1239;107898;-84
2023/10/23 05:35:34;;;;;;;12.60;3.80;;;;;;;10.83;75.29;99057.70;108443;1232;96605;-83
2023/10/23 05:38:21;;;;;;;6.50;3.30;;;;;;;10.83;75.32;99062.30;108911;1235;97483;-83
2023/10/23 05:40:56;;;;;;;7.90;3.40;;;;;;;10.85;75.29;99062.90;108689;1238;109787;-84
2023/10/23 05:43:37;;;;;;;10.50;3.40;;;;;;;10.86;75.33;99065.99;108761;1236;97795;-83
2023/10/23 05:46:31;;;;;;;9.70;3.30;;;;;;;10.87;75.32;99068.41;108611;1246;107962;-82
2023/10/23 05:49:01;;;;;;;11.30;3.40;;;;;;;10.87;75.32;99075.48;108643;1238;96624;-81
2023/10/23 05:51:31;;;;;;;8.90;3.00;;;;;;;10.90;75.37;99078.14;108818;1237;97800;-81
2023/10/23 05:54:16;;;;;;;9.70;3.50;;;;;;;10.93;75.28;99080.76;108579;1234;96547;-81
2023/10/23 05:56:43;;;;;;;10.10;3.60;;;;;;;10.94;75.28;99085.16;108708;1238;96649;-80
2023/10/23 05:59:10;;;;;;;9.90;3.50;;;;;;;10.96;75.33;99090.15;108460;1235;96540;-82
2023/10/23 06:02:33;;;;;;;;;;;;;;;;;;;;;
2023/10/23 06:05:58;;;;;;;9.50;4.00;;;;;;;11.01;75.38;99099.64;108708;1238;96660;-82
2023/10/23 06:09:25;;;;;;;;;;;;;;;;;;;;;
2023/10/23 06:11:55;;;;;;;9.20;3.80;;;;;;;11.12;75.53;99114.28;108804;1236;96584;-84
2023/10/23 06:14:42;;;;;;;9.90;3.30;;;;;;;11.17;75.41;99113.42;108602;1239;107538;-84
2023/10/23 06:17:12;;;;;;;8.70;3.50;;;;;;;11.22;75.54;99116.02;108644;1232;96625;-85
2023/10/23 06:19:46;;;;;;;8.40;3.20;;;;;;;11.27;75.45;99115.84;108744;1239;96612;-80
2023/10/23 06:22:13;;;;;;;7.20;3.00;;;;;;;11.32;75.53;99119.96;108465;1239;109538;-82
2023/10/23 06:24:44;;;;;;;9.20;3.00;;;;;;;11.39;75.61;99122.64;108784;1234;96585;-83
2023/10/23 06:27:12;;;;;;;8.80;3.20;;;;;;;11.44;75.53;99127.95;108602;1238;108153;-83
2023/10/23 06:29:39;;;;;;;8.70;3.00;;;;;;;11.47;75.52;99131.23;108551;1236;96653;-82
2023/10/23 06:32:18;;;;;;;9.50;3.10;;;;;;;11.51;75.45;99134.69;108632;1232;97652;-83
2023/10/23 06:34:56;;;;;;;9.00;3.10;;;;;;;11.55;75.48;99140.41;108365;1236;108784;-83
2023/10/23 06:37:33;;;;;;;9.10;3.30;;;;;;;11.58;75.48;99139.83;108481;1236;96963;-82
2023/10/23 06:40:07;;;;;;;8.80;2.90;;;;;;;11.63;75.51;99141.26;108603;1236;107540;-81
2023/10/23 06:42:39;;;;;;;13.80;3.20;;;;;;;11.65;75.46;99142.67;108146;1241;96591;-79
2023/10/23 06:45:06;;;;;;;11.10;3.10;;;;;;;11.67;75.38;99147.52;108326;1238;97502;-79
2023/10/23 06:47:33;;;;;;;7.30;2.70;;;;;;;11.69;75.39;99153.39;108238;1234;96570;-81
2023/10/23 06:50:04;;;;;;;18.20;3.70;;;;;;;11.72;75.37;99156.19;108766;1240;96561;-83
2023/10/23 06:52:45;;;;;;;11.50;3.10;;;;;;;11.74;75.35;99158.88;108494;1238;107512;-81
2023/10/23 06:55:12;;;;;;;12.90;3.90;;;;;;;11.77;75.36;99158.33;108540;1236;97264;-79
2023/10/23 06:57:39;;;;;;;12.70;3.40;;;;;;;11.81;75.47;99164.05;108479;1236;96605;-80
2023/10/23 07:00:16;;;;;;;;;;;;;;;;;;;;;
2023/10/23 07:02:53;;;;;;;10.50;3.10;;;;;;;11.90;75.51;99163.38;108536;1236;96506;-79
2023/10/23 07:05:20;;;;;;;8.20;3.30;;;;;;;11.94;75.53;99164.69;108596;1245;107045;-81
2023/10/23 07:07:46;;;;;;;6.80;2.50;;;;;;;11.98;75.44;99162.96;109138;1236;96589;-78
2023/10/23 07:10:13;;;;;;;8.30;2.90;;;;;;;12.00;75.39;99161.20;108822;1236;96584;-80
2023/10/23 07:12:44;;;;;;;6.90;2.90;;;;;;;12.02;75.40;99163.89;108874;1236;109836;-80
2023/10/23 07:15:12;;;;;;;8.90;2.70;;;;;;;12.05;75.41;99162.72;108809;1232;97375;-81
2023/10/23 07:17:41;;;;;;;11.00;2.90;;;;;;;12.10;75.46;99167.24;108927;1238;96641;-81
2023/10/23 07:20:17;;;;;;;6.40;2.50;;;;;;;12.16;75.41;99164.47;109098;1233;97698;-82
2023/10/23 07:22:52;;;;;;;9.60;3.10;;;;;;;12.21;75.49;99165.81;108624;1240;96601;-80
2023/10/23 07:25:19;;;;;;;8.40;2.70;;;;;;;12.27;75.55;99165.34;108679;1234;109500;-80
2023/10/23 07:27:46;;;;;;;7.70;2.40;;;;;;;12.34;75.50;99162.65;108863;1236;96561;-80
2023/10/23 07:30:13;;;;;;;12.20;2.90;;;;;;;12.40;75.34;99162.92;108963;1236;97746;-86
2023/10/23 07:32:40;;;;;;;5.60;2.30;;;;;;;12.45;75.52;99167.11;108843;1237;96552;-85
2023/10/23 07:35:49;;;;;;;;;;;;;;;;;;;;;
2023/10/23 07:38:41;;;;;;;;;;;;;;;;;;;;;
2023/10/23 07:42:09;;;;;;;8.20;3.00;;;;;;;12.75;75.29;99169.09;102730;1291;651601;-81
2023/10/23 07:44:58;;;;;;;7.10;2.40;;;;;;;12.81;75.42;99172.54;105534;1259;94333;-81
2023/10/23 07:47:54;;;;;;;8.80;2.40;;;;;;;12.86;74.75;99177.84;105678;1259;94346;-80
2023/10/23 07:51:03;;;;;;;9.00;2.70;;;;;;;12.87;75.01;99175.02;105674;1256;105879;-82
2023/10/23 07:53:43;;;;;;;8.10;2.40;;;;;;;12.91;74.83;99179.84;105612;1258;95157;-81
2023/10/23 07:56:49;;;;;;;;;;;;;;;;;;;;;
2023/10/23 08:00:20;;;;;;;6.40;2.40;;;;;;;13.02;74.76;99174.23;107467;1252;94864;-81
2023/10/23 08:03:24;;;;;;;6.20;2.70;;;;;;;13.11;75.01;99177.23;105836;1255;94701;-82
2023/10/23 08:05:54;;;;;;;10.20;3.00;;;;;;;13.17;75.06;99179.41;105811;1256;107491;-81
2023/10/23 08:08:20;;;;;;;10.60;2.80;;;;;;;13.26;74.97;99181.92;105573;1256;95605;-80
2023/10/23 08:10:53;;;;;;;9.50;2.80;;;;;;;13.30;74.67;99182.48;105486;1258;108054;-81
2023/10/23 08:13:20;;;;;;;9.70;2.80;;;;;;;13.30;74.14;99184.97;105719;1258;95234;-81
2023/10/23 08:15:47;;;;;;;7.30;2.80;;;;;;;13.29;74.59;99187.52;105806;1254;95400;-80
2023/10/23 08:18:16;;;;;;;13.30;4.10;;;;;;;13.31;74.29;99193.04;105649;1257;108468;-82
2023/10/23 08:21:16;;;;;;;10.10;3.60;;;;;;;13.33;74.68;99190.41;105990;1253;95436;-80
2023/10/23 08:23:52;;;;;;;17.00;4.00;;;;;;;13.37;74.66;99190.02;105730;1271;107576;-80
2023/10/23 08:26:20;;;;;;;15.00;4.40;;;;;;;13.41;74.81;99181.40;105547;1259;95253;-82
2023/10/23 08:38:01;;;;;;;;;;;;;;;;;;;;;
2023/10/23 08:46:43;;;;;;;;;;;;;;;;;;;;;
2023/10/23 08:50:07;;;;;;;12.60;3.50;;;;;;;13.77;74.55;99182.89;102774;1289;95618;-81
2023/10/23 08:52:47;;;;;;;8.00;2.70;;;;;;;13.83;73.79;99184.88;103251;1283;109151;-84
2023/10/23 08:55:14;;;;;;;6.90;3.10;;;;;;;13.85;74.01;99184.21;104700;1270;95361;-86
2023/10/23 08:57:43;;;;;;;11.30;4.20;;;;;;;13.90;74.27;99185.36;105235;1264;106763;-85
2023/10/23 09:00:29;;;;;;;13.00;4.10;;;;;;;13.98;73.96;99184.34;105122;1267;95487;-85
2023/10/23 09:03:07;;;;;;;10.50;3.60;;;;;;;14.04;74.05;99189.55;104892;1267;96311;-86
2023/10/23 09:05:37;;;;;;;12.80;3.80;;;;;;;14.07;73.97;99192.47;105130;1267;107997;-85
2023/10/23 09:09:01;;;;;;;10.00;3.50;;;;;;;14.11;73.80;99195.00;104867;1268;95359;-83
2023/10/23 09:25:49;;;;;;;10.00;2.70;;;;;;;14.14;73.20;99188.14;104878;1276;108924;-86
2023/10/23 09:42:41;;;;;;;8.00;2.80;;;;;;;14.38;72.98;99189.46;104230;1271;95514;-85
2023/10/23 09:45:30;;;;;;;6.70;2.60;;;;;;;14.41;73.07;99185.08;104443;1271;108808;-81
2023/10/23 09:47:59;;;;;;;8.00;2.50;;;;;;;14.42;72.89;99180.52;104736;1271;95506;-81
2023/10/23 10:03:41;;;;;;;25.70;6.80;;;;;;;15.00;72.55;99167.36;102477;1289;637155;-81
2023/10/23 10:06:13;;;;;;;17.00;4.50;;;;;;;14.91;72.14;99164.58;105389;1259;94395;-81
2023/10/23 10:08:49;;;;;;;14.00;4.00;;;;;;;14.86;72.55;99163.05;105582;1255;94296;-79
2023/10/23 10:11:21;;;;;;;12.00;4.30;;;;;;;14.84;72.83;99158.36;105566;1257;107115;-79
2023/10/23 10:13:50;;;;;;;6.90;2.90;;;;;;;14.84;72.06;99155.77;105436;1259;94305;-79
2023/10/23 10:16:21;;;;;;;7.70;2.60;;;;;;;14.80;72.41;99152.29;105391;1263;251520;-80
2023/10/23 10:18:50;;;;;;;13.20;3.70;;;;;;;14.80;72.17;99155.88;105739;1254;94382;-79
2023/10/23 10:21:24;;;;;;;11.40;3.30;;;;;;;14.79;71.90;99154.42;105586;1255;94321;-79
2023/10/23 10:23:54;;;;;;;13.70;3.30;;;;;;;14.75;71.20;99149.38;105550;1257;106864;-80
2023/10/23 10:26:23;;;;;;;15.60;4.80;;;;;;;14.74;71.45;99149.67;105245;1254;95162;-79
2023/10/23 10:28:54;;;;;;;16.00;5.40;;;;;;;14.73;71.33;99144.16;105661;1259;107999;-81
2023/10/23 10:31:25;;;;;;;17.70;4.70;;;;;;;14.72;71.39;99140.30;105801;1256;95355;-81
2023/10/23 10:34:13;;;;;;;13.20;3.70;;;;;;;14.79;71.30;99138.31;103092;1286;635940;-81
2023/10/23 10:36:59;;;;;;;11.60;3.30;;;;;;;14.81;71.44;99133.69;105311;1264;94230;-81
2023/10/23 10:40:03;;;;;;;11.50;2.80;;;;;;;14.87;71.60;99133.81;105290;1263;94334;-81
2023/10/23 10:42:35;;;;;;;9.80;2.80;;;;;;;14.95;71.16;99134.95;105325;1267;106137;-80
2023/10/23 10:45:11;;;;;;;7.40;2.30;;;;;;;15.00;71.09;99131.80;105282;1263;96116;-81
2023/10/23 10:47:43;;;;;;;6.90;2.80;;;;;;;15.03;71.25;99132.77;105535;1261;112781;-81
2023/10/23 10:50:34;;;;;;;5.90;2.50;;;;;;;15.08;71.49;99144.66;105470;1263;94306;-79
2023/10/23 10:53:12;;;;;;;8.50;2.30;;;;;;;15.14;71.10;99146.96;105191;1260;94325;-80
2023/10/23 10:55:47;;;;;;;16.10;4.40;;;;;;;15.19;71.03;99139.95;104970;1257;107228;-78
2023/10/23 10:58:18;;;;;;;12.10;3.90;;;;;;;15.21;70.37;99143.90;105269;1257;95629;-79
2023/10/23 11:00:46;;;;;;;6.80;2.80;;;;;;;15.25;70.31;99135.98;105165;1260;107592;-79
2023/10/23 11:03:15;;;;;;;10.10;3.00;;;;;;;15.34;69.65;99139.81;104935;1264;96153;-80
2023/10/23 11:05:44;;;;;;;11.20;3.80;;;;;;;15.41;70.14;99140.58;105500;1263;95133;-80
2023/10/23 11:08:15;;;;;;;9.50;3.00;;;;;;;15.50;70.73;99137.98;105649;1257;109754;-80
2023/10/23 11:10:45;;;;;;;9.60;3.00;;;;;;;15.58;70.88;99139.08;105899;1253;96155;-79
2023/10/23 11:13:15;;;;;;;7.10;2.50;;;;;;;15.64;71.01;99140.27;105849;1254;107313;-80
2023/10/23 11:15:46;;;;;;;6.70;3.00;;;;;;;15.71;70.97;99138.35;105796;1254;95301;-80
2023/10/23 11:18:19;;;;;;;11.10;3.30;;;;;;;15.78;71.07;99138.63;105812;1270;95255;-82
2023/10/23 11:20:49;;;;;;;18.90;4.80;;;;;;;15.86;70.96;99139.89;105804;1254;108684;-80
2023/10/23 11:23:18;;;;;;;17.40;7.00;;;;;;;15.91;70.19;99144.42;105793;1252;95783;-82
2023/10/23 11:25:54;;;;;;;18.00;6.10;;;;;;;15.89;69.71;99141.80;105847;1254;107522;-82
2023/10/23 11:28:31;;;;;;;13.30;5.10;;;;;;;15.85;70.45;99133.38;105872;1256;96273;-82
2023/10/23 11:31:00;;;;;;;19.20;7.10;;;;;;;15.85;70.05;99134.42;105618;1251;95327;-81
2023/10/23 11:33:28;;;;;;;12.20;4.40;;;;;;;15.84;70.18;99131.48;106066;1251;109057;-80
2023/10/23 11:36:05;;;;;;;17.70;5.50;;;;;;;15.83;70.41;99133.70;105605;1267;96606;-81
2023/10/23 11:38:38;;;;;;;9.90;3.90;;;;;;;15.83;70.42;99131.73;105536;1251;108362;-79
2023/10/23 11:41:08;;;;;;;12.50;4.00;;;;;;;15.82;69.92;99134.23;105741;1253;96293;-79
2023/10/23 11:43:41;;;;;;;9.90;2.90;;;;;;;15.77;69.78;99132.26;105924;1255;96088;-80
2023/10/23 11:46:11;;;;;;;10.40;3.10;;;;;;;15.74;70.14;99129.65;105676;1275;108620;-79
2023/10/23 11:48:39;;;;;;;7.20;2.40;;;;;;;15.76;70.32;99129.75;105643;1257;95254;-80
2023/10/23 11:51:12;;;;;;;8.80;2.30;;;;;;;15.78;70.39;99121.27;105355;1257;107631;-80
2023/10/23 11:53:40;;;;;;;11.60;2.40;;;;;;;15.83;70.40;99121.75;105660;1253;95249;-80
2023/10/23 11:56:08;;;;;;;8.30;2.40;;;;;;;15.87;70.27;99125.16;105396;1257;95236;-80
2023/10/23 11:58:36;;;;;;;8.80;2.60;;;;;;;15.89;69.72;99123.38;105870;1257;109071;-80
2023/10/23 12:01:06;;;;;;;8.30;2.10;;;;;;;15.87;69.41;99114.08;105847;1254;95260;-80
2023/10/23 12:03:34;;;;;;;7.60;2.40;;;;;;;15.86;69.96;99117.36;105731;1253;107726;-80
2023/10/23 12:06:05;;;;;;;5.30;1.90;;;;;;;15.87;69.69;99114.73;105797;1253;96107;-79
2023/10/23 12:08:37;;;;;;;8.80;2.20;;;;;;;15.87;69.57;99114.29;105596;1253;95294;-79
2023/10/23 12:11:14;;;;;;;13.30;2.80;;;;;;;15.85;69.51;99113.84;105552;1256;107573;-79
2023/10/23 12:13:46;;;;;;;8.30;2.10;;;;;;;15.85;69.56;99115.29;106047;1253;95411;-80
2023/10/23 12:16:18;;;;;;;6.60;2.60;;;;;;;15.85;69.64;99117.06;105884;1267;107242;-80
2023/10/23 12:18:48;;;;;;;9.10;2.90;;;;;;;15.88;69.77;99118.81;105746;1257;95233;-80
2023/10/23 12:21:16;;;;;;;8.70;2.80;;;;;;;15.91;69.77;99118.11;105758;1252;95230;-81
2023/10/23 12:23:45;;;;;;;11.10;2.70;;;;;;;15.94;69.91;99117.65;105581;1257;108615;-80
2023/10/23 12:26:26;;;;;;;;;;;;;;;;;;;;;
2023/10/23 12:28:57;;;;;;;10.90;3.40;;;;;;;15.94;69.25;99116.42;105777;1255;107548;-82
2023/10/23 12:31:33;;;;;;;10.80;3.70;;;;;;;15.92;69.34;99115.55;105824;1254;95740;-82
2023/10/23 12:34:22;;;;;;;12.20;3.30;;;;;;;15.90;68.98;99119.27;105564;1256;95256;-83
2023/10/23 12:37:17;;;;;;;8.70;3.20;;;;;;;15.88;69.30;99120.42;105710;1254;108152;-82
2023/10/23 12:40:47;;;;;;;;;;;;;;;;;;;;;
2023/10/23 12:43:03;;;;;;;9.90;2.80;;;;;;;15.88;69.12;99126.69;105658;1260;107996;-81
2023/10/23 12:45:33;;;;;;;9.90;2.80;;;;;;;15.90;69.37;99125.10;105890;1255;95167;-80
2023/10/23 12:48:01;;;;;;;6.60;2.70;;;;;;;15.92;69.42;99125.80;105479;1260;95277;-81
2023/10/23 12:50:30;;;;;;;8.70;2.70;;;;;;;15.93;69.32;99130.50;105787;1256;108597;-80
2023/10/23 12:52:58;;;;;;;7.20;2.30;;;;;;;15.95;69.26;99126.95;105699;1257;95227;-81
2023/10/23 12:55:28;;;;;;;6.10;2.50;;;;;;;15.96;69.20;99128.61;105838;1259;107114;-80
2023/10/23 12:58:07;;;;;;;;;;;;;;;;;;;;;
2023/10/23 13:00:41;;;;;;;7.30;2.50;;;;;;;15.92;68.27;99118.80;105504;1259;95252;-80
2023/10/23 13:03:11;;;;;;;7.80;2.20;;;;;;;15.91;68.54;99118.48;105521;1267;108220;-79
2023/10/23 13:05:40;;;;;;;6.20;2.10;;;;;;;15.94;68.77;99120.39;105517;1257;96290;-80
2023/10/23 13:08:10;;;;;;;11.20;2.70;;;;;;;15.97;68.62;99120.84;105763;1254;107646;-80
2023/10/23 13:10:41;;;;;;;6.50;2.10;;;;;;;15.97;68.78;99121.52;105692;1257;95297;-80
2023/10/23 13:13:11;;;;;;;8.90;3.10;;;;;;;16.00;68.82;99117.13;105519;1253;95694;-80
2023/10/23 13:15:47;;;;;;;13.30;3.60;;;;;;;16.02;68.71;99106.63;105284;1260;110055;-80
2023/10/23 13:18:15;;;;;;;8.00;2.50;;;;;;;16.02;68.62;99106.02;105665;1260;95493;-81
2023/10/23 13:20:43;;;;;;;7.70;2.90;;;;;;;16.01;68.17;99103.80;105739;1253;107603;-81
2023/10/23 13:23:32;;;;;;;11.90;3.10;;;;;;;16.00;68.45;99103.16;105640;1258;95431;-80
2023/10/23 13:26:03;;;;;;;13.00;3.40;;;;;;;16.02;68.11;99097.67;105352;1262;95344;-80
2023/10/23 13:28:41;;;;;;;9.10;2.90;;;;;;;16.01;68.43;99092.88;105468;1260;108434;-80
2023/10/23 13:31:47;;;;;;;8.90;2.70;;;;;;;16.05;68.52;99093.43;105719;1254;95705;-86
2023/10/23 13:35:14;;;;;;;8.90;2.90;;;;;;;16.07;68.18;99087.52;105755;1252;108307;-86
2023/10/23 13:37:50;;;;;;;12.10;2.80;;;;;;;16.06;68.03;99082.97;105664;1258;95282;-82
2023/10/23 13:40:18;;;;;;;10.20;3.20;;;;;;;16.06;68.05;99081.14;105559;1254;95268;-80
2023/10/23 13:42:49;;;;;;;12.00;2.90;;;;;;;16.06;68.07;99084.56;105404;1259;108128;-81
2023/10/23 13:45:22;;;;;;;;;;;;;;;16.07;67.67;99083.80;105598;1254;95285;-82
2023/10/23 13:47:50;;;;;;;9.90;2.50;;;;;;;16.04;67.26;99084.59;105892;1256;107565;-78
2023/10/23 13:50:18;;;;;;;11.70;3.60;;;;;;;16.00;67.25;99086.02;105321;1254;95265;-81
2023/10/23 13:52:46;;;;;;;21.20;7.90;;;;;;;15.97;67.43;99085.65;105534;1254;95333;-80
2023/10/23 13:55:16;;;;;;;14.60;4.80;;;;;;;15.94;67.57;99084.11;105829;1257;108372;-81
2023/10/23 13:57:44;;;;;;;17.00;6.20;;;;;;;15.94;67.52;99084.27;105836;1252;96311;-81
2023/10/23 14:00:15;;;;;;;14.50;5.10;;;;;;;15.93;67.65;99083.29;105760;1258;107162;-81
2023/10/23 14:02:46;;;;;;;15.70;4.30;;;;;;;15.92;67.66;99080.13;105690;1257;95341;-79
2023/10/23 14:05:15;;;;;;;12.40;3.70;;;;;;;15.89;67.54;99073.27;105889;1254;95265;-81
2023/10/23 14:07:45;;;;;;;13.20;4.30;;;;;;;15.88;67.64;99071.98;105795;1254;108638;-81
2023/10/23 14:10:16;;;;;;;18.30;5.10;;;;;;;15.86;67.56;99076.08;105953;1258;95737;-81
2023/10/23 14:12:51;;;;;;;11.90;3.40;;;;;;;15.84;67.49;99076.77;105920;1257;108582;-81
2023/10/23 14:15:21;;;;;;;11.60;2.90;;;;;;;15.81;67.48;99075.84;105541;1254;95157;-81
2023/10/23 14:17:49;;;;;;;23.40;10.70;;;;;;;15.76;67.29;99069.98;105705;1257;95188;-79
2023/10/23 14:20:23;;;;;;;16.80;6.20;;;;;;;15.73;67.36;99070.30;105797;1256;108607;-80
2023/10/23 14:22:58;;;;;;;11.20;3.40;;;;;;;15.68;67.44;99074.13;105463;1254;95648;-79
2023/10/23 14:25:27;;;;;;;13.40;3.80;;;;;;;15.63;67.25;99070.86;105274;1253;106721;-79
2023/10/23 14:27:59;;;;;;;15.80;3.60;;;;;;;15.58;67.30;99073.78;105321;1257;95269;-80
2023/10/23 14:30:29;;;;;;;22.50;7.90;;;;;;;15.53;67.19;99073.52;105542;1259;95445;-79
2023/10/23 14:32:57;;;;;;;44.20;16.90;;;;;;;15.47;67.22;99069.48;105671;1256;108277;-79
2023/10/23 14:35:31;;;;;;;88.00;39.20;;;;;;;15.42;67.02;99073.33;105227;1254;95329;-79
2023/10/23 14:37:59;;;;;;;94.90;44.80;;;;;;;15.37;67.14;99069.89;105271;1271;106931;-78
2023/10/23 14:40:29;;;;;;;78.70;39.00;;;;;;;15.31;67.13;99073.05;105442;1258;95889;-78
2023/10/23 14:42:58;;;;;;;81.50;44.60;;;;;;;15.25;67.17;99075.09;105683;1253;95252;-78
2023/10/23 14:45:27;;;;;;;105.60;53.60;;;;;;;15.20;67.15;99075.34;105333;1254;108776;-77
2023/10/23 14:47:55;;;;;;;89.70;48.10;;;;;;;15.16;67.09;99072.48;108531;1252;95071;-78
2023/10/23 14:50:23;;;;;;;62.20;33.90;;;;;;;15.11;67.04;99074.52;105970;1254;107544;-80
2023/10/23 14:52:51;;;;;;;54.20;24.40;;;;;;;15.03;67.02;99073.00;106028;1267;96983;-78
2023/10/23 14:55:19;;;;;;;55.30;18.60;;;;;;;14.94;67.02;99074.67;105585;1260;96578;-77
2023/10/23 14:57:47;;;;;;;37.20;16.00;;;;;;;14.84;67.00;99075.72;108592;1253;108619;-78
2023/10/23 15:00:19;;;;;;;34.00;15.00;;;;;;;14.76;67.07;99081.27;108706;1253;94519;-78
2023/10/23 15:02:47;;;;;;;32.60;13.10;;;;;;;14.71;67.12;99083.27;105608;1253;107588;-80
2023/10/23 15:05:16;;;;;;;33.70;13.60;;;;;;;14.68;67.18;99082.84;105474;1256;97435;-77
2023/10/23 15:07:45;;;;;;;30.90;12.10;;;;;;;14.64;67.08;99081.60;105408;1253;96594;-78
2023/10/23 15:10:15;;;;;;;24.90;10.00;;;;;;;14.59;67.19;99079.91;105403;1259;108349;-82
2023/10/23 15:12:43;;;;;;;26.40;10.60;;;;;;;14.50;67.03;99079.77;105598;1256;97567;-79
2023/10/23 15:15:11;;;;;;;21.90;8.90;;;;;;;14.40;67.08;99078.95;105250;1254;107681;-78
2023/10/23 15:17:40;;;;;;;23.50;8.70;;;;;;;14.33;67.15;99082.21;105509;1260;96690;-80
2023/10/23 15:20:11;;;;;;;20.80;7.10;;;;;;;14.25;67.18;99084.63;105490;1253;96635;-78
2023/10/23 15:22:39;;;;;;;17.00;5.70;;;;;;;14.18;67.14;99090.09;105435;1253;109669;-78
2023/10/23 15:25:07;;;;;;;15.70;6.00;;;;;;;14.11;67.19;99094.80;105520;1256;96587;-79
2023/10/23 15:27:35;;;;;;;14.60;5.80;;;;;;;14.04;67.20;99097.78;105566;1259;107978;-79
2023/10/23 15:30:05;;;;;;;20.50;7.70;;;;;;;13.94;67.07;99098.20;105595;1254;96581;-77
2023/10/23 15:32:33;;;;;;;18.00;6.70;;;;;;;13.84;67.09;99094.04;105618;1253;96722;-78
2023/10/23 15:35:05;;;;;;;18.00;5.90;;;;;;;13.79;67.27;99096.67;105402;1252;109884;-78
2023/10/23 15:37:35;;;;;;;14.80;4.80;;;;;;;13.72;67.28;99096.86;105675;1264;96603;-78
2023/10/23 15:40:05;;;;;;;13.80;5.10;;;;;;;13.65;67.20;99101.60;105946;1252;107561;-81
